• Join FlightAware (Why Join?)
  • Login
  • US Flag 
10:14PM EDT


 

Airport Tracker/Info


-or-


 

Live Flight TrackerFlight Track Log ✈ N6949U ✈ 10-Aug-2013 ✈ I40 - KOWD

Flight Track Log - Related Links

Times and Time Zones

All times are in EDT time to prevent confusion due to time zone crossing. See the N6949U flight status page for this flight to view local times or setup timezone preferences in your user account.

Time Position Orientation Groundspeed Altitude Reporting Facility
EDT Latitude Longitude Course Direction KTS MPH feet Rate Location/Type
04:45PM 40.4231 -81.2578 74° East 123 142 2,700  Level Indianapolis Center
04:47PM 40.4404 -81.1804 74° East  Level Estimated
04:49PM 40.3848 -81.5234 73° East  Level Estimated
04:50PM 40.3971 -81.4685 74° East  Level Estimated
04:54PM 40.5216 -80.8145 74° East  Level Estimated
04:55PM 40.5331 -80.7622 74° East  Level Estimated
04:56PM 40.5446 -80.7098 74° East  Level Estimated
04:57PM 40.5560 -80.6574 74° East  Level Estimated
04:58PM 40.5675 -80.6050 74° East  Level Estimated
04:59PM 40.5789 -80.5526 74° East  Level Estimated
05:00PM 40.5903 -80.5002 74° East  Level Estimated
05:01PM 40.6016 -80.4478 74° East  Level Estimated
05:02PM 40.6130 -80.3953 74° East  Level Estimated
05:03PM 40.6243 -80.3428 74° East  Level Estimated
05:04PM 40.6356 -80.2903 74° East  Level Estimated
05:05PM 40.6468 -80.2378 74° East  Level Estimated
05:06PM 40.6581 -80.1853 74° East  Level Estimated
05:07PM 40.6693 -80.1327 74° East  Level Estimated
05:08PM 40.6805 -80.0801 74° East  Level Estimated
05:09PM 40.6917 -80.0276 74° East  Level Estimated
05:10PM 40.7028 -79.9750 74° East  Level Estimated
05:11PM 40.7139 -79.9223 74° East  Level Estimated
05:11PM 40.7075 -79.9283 75° East 178 205 7,000  Level Cleveland Center
05:12PM 40.7250 -79.8697 74° East  Level Estimated
05:12PM 40.7194 -79.8708 75° East 178 205 7,000  Level Cleveland Center
05:13PM 40.7361 -79.8170 74° East  Level Estimated
05:13PM 40.7317 -79.8106 75° East 173 199 7,000  Level Cleveland Center
05:14PM 40.7472 -79.7644 75° East  Level Estimated
05:14PM 40.7436 -79.7528 75° East 163 188 7,000  Level Cleveland Center
05:15PM 40.7582 -79.7117 75° East  Level Estimated
05:15PM 40.7578 -79.6950 72° East 163 188 7,000  Level Cleveland Center
05:16PM 40.7692 -79.6590 75° East  Level Estimated
05:16PM 40.7678 -79.6372 77° East 163 188 7,000  Level Cleveland Center
05:17PM 40.7819 -79.5794 72° East 163 188 7,000  Level Cleveland Center
05:18PM 40.7919 -79.5244 76° East 163 188 7,000  Level Cleveland Center
05:19PM 40.8058 -79.4639 73° East 163 188 7,000  Level Cleveland Center
05:20PM 40.8158 -79.4061 77° East 163 188 7,000  Level Cleveland Center
05:21PM 40.8297 -79.3483 72° East 163 188 7,000  Level Cleveland Center
05:22PM 40.8417 -79.2878 75° East 163 188 7,100  Climbing Cleveland Center
05:23PM 40.8514 -79.2325 77° East 163 188 7,100  Level Cleveland Center
05:24PM 40.8631 -79.1747 75° East 163 188 7,100  Level Cleveland Center
05:25PM 40.8750 -79.1194 74° East 163 188 7,100  Level Cleveland Center
05:26PM 40.8825 -79.0617 80° East 163 188 7,100  Level Cleveland Center
05:27PM 40.8986 -79.0064 69° East 163 188 7,100  Level Cleveland Center
05:28PM 40.9122 -78.9372 75° East 163 188 7,100  Level Cleveland Center
05:29PM 40.9217 -78.8794 78° East 163 188 7,100  Level Cleveland Center
05:30PM 40.9333 -78.8297 73° East 163 188 7,100 -120 Level Cleveland Center
05:32PM 40.9531 -78.7178 77° East 173 199 6,900 -120 Descending New York Center
05:33PM 40.9653 -78.6614 74° East 168 193 6,900  Level New York Center
05:34PM 40.9708 -78.6069 82° East 163 188 6,900  Level New York Center
05:35PM 40.9725 -78.5494 88° East 163 188 6,900  Level New York Center
05:36PM 40.9808 -78.4900 79° East 158 182 6,900  Level New York Center
05:37PM 41.0008 -78.4372 63° Northeast 158 182 6,900  Level New York Center
05:38PM 41.0228 -78.3872 60° Northeast 158 182 6,900  Level New York Center
05:39PM 41.0350 -78.3281 75° East 163 188 6,900  Level New York Center
05:40PM 41.0433 -78.2631 80° East 163 188 6,900  Level New York Center
05:41PM 41.0492 -78.2031 83° East 163 188 6,900  Level New York Center
05:42PM 41.0689 -78.1531 62° Northeast 158 182 6,900  Level New York Center
05:43PM 41.0744 -78.0958 83° East 158 182 6,900  Level New York Center
05:44PM 41.0761 -78.0353 88° East 158 182 6,900  Level New York Center
05:45PM 41.0881 -77.9786 74° East 158 182 6,900  Level New York Center
05:46PM 41.0975 -77.9219 78° East 158 182 7,000  Climbing New York Center
05:47PM 41.1094 -77.8653 74° East 158 182 7,000  Level New York Center
05:48PM 41.1275 -77.8067 68° East 158 182 7,000  Level New York Center
05:49PM 41.1433 -77.7503 70° East 158 182 7,000  Level New York Center
05:50PM 41.1631 -77.6972 64° Northeast 163 188 7,000  Level New York Center
05:51PM 41.1747 -77.6406 75° East 163 188 7,000  Level New York Center
05:52PM 41.1842 -77.5836 78° East 163 188 7,000  Level New York Center
05:53PM 41.1917 -77.5264 80° East 163 188 7,000  Level New York Center
05:54PM 41.1992 -77.4664 81° East 163 188 7,000  Level New York Center
05:55PM 41.2067 -77.4067 81° East 163 188 7,000  Level New York Center
05:56PM 41.2158 -77.3578 76° East 163 188 7,000  Level New York Center
05:57PM 41.2292 -77.3011 73° East 158 182 7,000  Level New York Center
05:58PM 41.2389 -77.2414 78° East 158 182 7,000  Level New York Center
05:59PM 41.2461 -77.1842 80° East 158 182 7,000  Level New York Center
06:00PM 41.2594 -77.1300 72° East 158 182 7,000  Level New York Center
06:01PM 41.2686 -77.0731 78° East 158 182 7,000  Level New York Center
06:02PM 41.2739 -77.0128 83° East 158 182 7,000  Level New York Center
06:03PM 41.2833 -76.9556 78° East 158 182 7,000  Level New York Center
06:04PM 41.3028 -76.9022 64° Northeast 158 182 7,000  Level New York Center
06:05PM 41.3161 -76.8453 73° East 158 182 7,000  Level New York Center
06:06PM 41.3250 -76.7908 78° East 158 182 7,000  Level New York Center
06:07PM 41.3383 -76.7339 73° East 158 182 7,000  Level New York Center
06:08PM 41.3436 -76.6681 84° East 158 182 7,000  Level New York Center
06:09PM 41.3508 -76.6108 80° East 158 182 7,000  Level New York Center
06:10PM 41.3642 -76.5511 73° East 158 182 7,000  Level New York Center
06:11PM 41.3750 -76.4994 74° East 163 188 7,000  Level New York Center
06:12PM 41.3861 -76.4394 76° East 163 188 7,000  Level New York Center
06:13PM 41.3953 -76.3767 79° East 158 182 7,000  Level New York Center
06:14PM 41.4044 -76.3167 78° East 163 188 7,000  Level New York Center
06:15PM 41.4153 -76.2594 76° East 163 188 7,000  Level New York Center
06:16PM 41.4261 -76.2078 74° East 163 188 7,000  Level New York Center
06:17PM 41.4314 -76.1389 84° East 163 188 7,000  Level New York Center
06:18PM 41.4403 -76.0789 79° East 158 182 7,000  Level New York Center
06:19PM 41.4575 -76.0219 68° East 158 182 7,000  Level New York Center
06:20PM 41.4683 -75.9647 76° East 164 189 7,000  Level New York Center
06:21PM 41.4792 -75.9047 76° East 164 189 7,000  Level New York Center
06:22PM 41.4903 -75.8419 77° East 164 189 7,000  Level New York Center
06:23PM 41.5011 -75.7789 77° East 164 189 7,000  Level New York Center
06:24PM 41.5122 -75.7161 77° East 164 189 7,000  Level New York Center
06:26PM 41.5241 -75.6415 78° East  Level FlightAware Approximate
06:31PM 41.5581 -75.2783 78° East 178 205 7,000  Level Boston Center
06:32PM 41.5619 -75.2092 86° East 198 228 7,000  Level Boston Center
06:33PM 41.5934 -75.2183 77° East  Level FlightAware Approximate
06:33PM 41.5656 -75.1425 86° East 192 221 7,000  Level Boston Center
06:34PM 41.6032 -75.1578 78° East  Level FlightAware Approximate
06:34PM 41.5650 -75.0817 91° East 186 214 7,000  Level Boston Center
06:35PM 41.6130 -75.0973 78° East  Level FlightAware Approximate
06:35PM 41.5689 -75.0094 86° East 175 201 7,000  Level Boston Center
06:36PM 41.6227 -75.0368 78° East  Level FlightAware Approximate
06:36PM 41.5703 -74.9486 88° East 175 201 7,000  Level Boston Center
06:37PM 41.5758 -74.8767 84° East 175 201 7,000  Level Boston Center
06:38PM 41.5772 -74.8156 88° East 180 207 7,000  Level Boston Center
06:39PM 41.5808 -74.7464 86° East 175 201 7,000  Level Boston Center
06:40PM 41.5819 -74.6853 89° East 175 201 7,000  Level Boston Center
06:41PM 41.5833 -74.6133 88° East 180 207 7,000  Level Boston Center
06:42PM 41.5844 -74.5522 89° East 180 207 7,000  Level Boston Center
06:43PM 41.5900 -74.4803 84° East 175 201 7,000  Level Boston Center
06:44PM 41.5911 -74.4219 89° East 175 201 7,000  Level Boston Center
06:45PM 41.5922 -74.3525 89° East 175 201 7,000  Level Boston Center
06:46PM 41.5953 -74.2917 86° East 175 201 7,000  Level Boston Center
06:47PM 41.5986 -74.2222 86° East 175 201 7,000  Level Boston Center
06:48PM 41.5994 -74.1611 89° East 175 201 7,000  Level Boston Center
06:49PM 41.6025 -74.0947 86° East 175 201 7,000 -60 Level Boston Center
06:50PM 41.6036 -74.0253 89° East 175 201 6,900 -60 Descending Boston Center
06:51PM 41.6064 -73.9642 87° East 182 209 6,900  Level Boston Center
06:52PM 41.6075 -73.8922 89° East 175 201 6,900  Level Boston Center
06:53PM 41.6081 -73.8339 89° East 175 201 6,900  Level Boston Center
06:54PM 41.6111 -73.7589 87° East 175 201 6,900  Level Boston Center
06:55PM 41.6117 -73.7061 89° East 175 201 6,900  Level Boston Center
06:56PM 41.6147 -73.6342 87° East 175 201 6,900  Level Boston Center
06:57PM 41.6172 -73.5758 87° East 175 201 6,900  Level Boston Center
06:58PM 41.6181 -73.5036 89° East 175 201 6,900  Level Boston Center
06:59PM 41.6161 -73.4703 94° East 173 199 6,900  Level Boston Center
06:59PM 41.6208 -73.4119 84° East 175 201 6,900  Level Boston Center
07:00PM 41.6214 -73.3731 89° East 175 201 6,900  Level Boston Center
07:01PM 41.6239 -73.3092 87° East 175 201 6,900  Level Boston Center
07:02PM 41.6306 -73.2456 82° East 182 209 6,900  Level Boston Center
07:03PM 41.6456 -73.1847 72° East 174 200 6,900  Level Boston Center
07:04PM 41.6544 -73.1236 79° East 169 194 6,900  Level Boston Center
07:05PM 41.6672 -73.0625 74° East 163 188 6,900  Level Boston Center
07:06PM 41.6778 -73.0042 76° East 163 188 6,900  Level Boston Center
07:07PM 41.6908 -72.9406 75° East 163 188 6,900  Level Boston Center
07:08PM 41.7014 -72.8822 76° East 163 188 6,900 60 Level Boston Center
07:09PM 41.7078 -72.8461 77° East 172 198 7,000 60 Climbing Boston Center
07:09PM 41.7164 -72.7878 79° East 170 196 7,000 -120 Level Boston Center
07:10PM 41.7225 -72.7628 72° East 163 188 6,900  Descending Boston Center
07:10PM 41.7289 -72.7267 77° East 173 199 7,000  Climbing Boston Center
07:11PM 41.7353 -72.6961 74° East 163 188 6,900 -120 Descending Boston Center
07:12PM 41.7436 -72.6514 76° East 173 199 6,900  Level Boston Center
07:13PM 41.7583 -72.5708 76° East 172 198 6,900  Level Boston Center
07:14PM 41.7711 -72.5069 75° East 176 203 6,900  Level Boston Center
07:15PM 41.7836 -72.4372 76° East 172 198 6,900  Level Boston Center
07:16PM 41.7961 -72.3733 75° East 174 200 6,900  Level Boston Center
07:17PM 41.8042 -72.3092 80° East 173 199 6,900  Level Boston Center
07:18PM 41.8189 -72.2478 72° East 177 204 6,900  Level Boston Center
07:19PM 41.8269 -72.1894 79° East 174 200 6,900  Level Boston Center
07:20PM 41.8414 -72.1253 73° East 177 204 6,900  Level Boston Center
07:21PM 41.8517 -72.0583 78° East 180 207 6,900  Level Boston Center
07:22PM 41.8619 -71.9942 78° East 178 205 6,900 -300 Level Boston Center
07:23PM 41.8658 -71.9272 86° East 187 215 6,400 -600 Descending Boston Center
07:24PM 41.8781 -71.8658 75° East 169 194 5,800 -600 Descending Boston Center
07:25PM 41.8964 -71.8069 67° East 175 201 5,200 -600 Descending Boston Center
07:26PM 41.9064 -71.7428 78° East 172 198 4,700 -600 Descending Boston Center
07:28PM 41.9500 -71.6333 62° Northeast 158 182 3,500 -540 Descending KA90
07:29PM 41.9833 -71.5833 48° Northeast 155 178 3,000 -240 Descending KA90
07:30PM 42.0000 -71.5333 66° East 154 177 3,000  Level KA90
07:31PM 42.0333 -71.4833 48° Northeast 155 178 3,000  Level KA90
07:32PM 42.0500 -71.4333 66° East 158 182 3,000 -240 Level KA90
07:34PM 42.0833 -71.3667 56° Northeast 158 182 2,600 -540 Descending KA90
07:35PM 42.1000 -71.3167 66° East 156 180 1,900 -600 Descending KA90
07:36PM 42.1333 -71.2833 37° Northeast 144 166 1,400 -420 Descending KA90
07:37PM 42.1500 -71.2500 56° Northeast 134 154 1,200 -300 Descending KA90
07:37PM 42.1667 -71.2167 56° Northeast 140 161 900 -300 Descending KA90
07:38PM 42.1667 -71.1833 90° East 110 127 700 -240 Descending KA90
07:40PM 42.1833 -71.1667 66° East  Level FlightAware Approximate
07:47PM 42.1905 -71.1729 66° East  Level Estimated